Time;durP1;ratioP1;P1;durP2;ratioP2;P2;SDS_P1;SDS_P2;PMS_P1;PMS_P2;Temp;Humidity;BMP_temperature;BMP_pressure;BME280_temperature;BME280_humidity;BME280_pressure;Samples;Min_cycle;Max_cycle;Signal;HPM_P1;HPM_P2
2022/06/28 00:00:11;;;;;;;1028.83;935.90;;;21.80;99.90;;;;;;5007213;28;20283;-63
2022/06/28 00:02:37;;;;;;;1019.20;924.70;;;21.80;99.90;;;;;;5007751;28;20702;-63
2022/06/28 00:05:04;;;;;;;1052.07;955.07;;;21.90;99.90;;;;;;5011094;28;20203;-63
2022/06/28 00:07:30;;;;;;;1019.13;927.00;;;21.90;99.90;;;;;;5015062;28;20203;-62
2022/06/28 00:09:55;;;;;;;1006.00;912.67;;;21.80;99.90;;;;;;5015704;28;20214;-62
2022/06/28 00:12:21;;;;;;;999.90;908.07;;;21.60;99.90;;;;;;5012182;28;20196;-65
2022/06/28 00:17:30;;;;;;;999.23;905.40;;;20.80;99.90;;;;;;5005407;28;20207;-64
2022/06/28 00:19:56;;;;;;;1008.30;913.73;;;20.50;99.90;;;;;;5019853;28;20612;-64
2022/06/28 00:22:21;;;;;;;983.50;891.50;;;20.30;99.90;;;;;;5027272;28;20199;-66
2022/06/28 00:24:47;;;;;;;968.60;876.00;;;20.20;99.90;;;;;;5010317;28;20226;-65
2022/06/28 00:27:12;;;;;;;990.33;897.30;;;20.20;99.90;;;;;;5017905;28;20262;-64
2022/06/28 00:29:38;;;;;;;1011.07;913.77;;;20.20;99.90;;;;;;5013327;28;20276;-61
2022/06/28 00:32:04;;;;;;;1029.60;934.70;;;20.20;99.90;;;;;;5022521;28;20749;-63
2022/06/28 00:34:30;;;;;;;990.40;896.80;;;20.20;99.90;;;;;;5014830;28;20544;-63
2022/06/28 00:36:56;;;;;;;1032.77;944.10;;;20.20;99.90;;;;;;5022766;28;20253;-62
2022/06/28 00:39:21;;;;;;;1008.80;922.70;;;20.10;99.90;;;;;;5023604;28;20208;-63
2022/06/28 00:41:47;;;;;;;1038.90;950.97;;;20.20;99.90;;;;;;5014211;28;20195;-63
2022/06/28 00:44:13;;;;;;;1041.03;953.77;;;20.20;99.90;;;;;;5018408;28;20224;-63
2022/06/28 00:46:39;;;;;;;1026.87;937.80;;;20.20;99.90;;;;;;5015769;28;20188;-65
2022/06/28 00:49:05;;;;;;;1019.73;926.43;;;20.20;99.90;;;;;;5020681;28;20409;-63
2022/06/28 00:51:32;;;;;;;1048.43;953.07;;;20.20;99.90;;;;;;5016561;28;20184;-62
2022/06/28 00:53:58;;;;;;;1042.53;950.23;;;20.00;99.90;;;;;;5008692;28;20239;-62
2022/06/28 00:56:24;;;;;;;1038.13;948.77;;;20.10;99.90;;;;;;5008152;28;20714;-63
2022/06/28 00:58:52;;;;;;;1032.10;941.07;;;20.10;99.90;;;;;;5006189;28;20224;-63
2022/06/28 01:01:21;;;;;;;1008.73;922.87;;;20.20;99.90;;;;;;5005062;28;20643;-62
2022/06/28 01:03:47;;;;;;;1026.37;946.90;;;20.10;99.90;;;;;;5007206;28;20199;-64
2022/06/28 01:06:12;;;;;;;986.33;910.37;;;20.10;99.90;;;;;;5018788;28;20184;-60
2022/06/28 01:08:40;;;;;;;952.57;862.27;;;20.10;99.90;;;;;;5026307;28;20215;-66
2022/06/28 01:11:20;;;;;;;977.53;885.77;;;20.00;99.90;;;;;;5005089;28;20240;-66
2022/06/28 01:13:52;;;;;;;952.37;862.57;;;20.00;99.90;;;;;;5012111;28;20188;-59
2022/06/28 01:16:19;;;;;;;928.50;839.23;;;20.00;99.90;;;;;;5012754;28;20200;-59
2022/06/28 01:18:45;;;;;;;939.67;850.47;;;20.10;99.90;;;;;;5023111;28;20302;-60
2022/06/28 01:21:15;;;;;;;946.23;853.93;;;20.20;99.90;;;;;;5005710;28;20319;-60
2022/06/28 01:23:45;;;;;;;941.23;851.00;;;20.10;99.90;;;;;;5006948;28;20223;-61
2022/06/28 01:26:16;;;;;;;921.27;831.60;;;20.10;99.90;;;;;;5005252;28;20200;-60
2022/06/28 01:28:42;;;;;;;959.57;869.10;;;20.10;99.90;;;;;;5009222;28;20199;-61
2022/06/28 01:31:08;;;;;;;957.20;866.60;;;20.10;99.90;;;;;;5006320;28;20306;-60
2022/06/28 01:33:37;;;;;;;930.73;840.43;;;20.10;99.90;;;;;;5007941;28;20287;-60
2022/06/28 01:36:07;;;;;;;935.57;845.13;;;20.00;99.90;;;;;;5007771;28;20587;-60
2022/06/28 01:38:33;;;;;;;943.33;851.57;;;20.10;99.90;;;;;;5008335;28;20203;-62
2022/06/28 01:40:59;;;;;;;990.13;896.73;;;20.10;99.90;;;;;;5005315;28;20210;-63
2022/06/28 01:43:26;;;;;;;942.10;851.07;;;20.00;99.90;;;;;;5006095;28;20606;-62
2022/06/28 01:45:54;;;;;;;945.67;852.70;;;19.80;99.90;;;;;;5006485;28;20265;-62
2022/06/28 01:48:20;;;;;;;990.00;893.47;;;19.60;99.90;;;;;;5006946;28;20618;-59
2022/06/28 01:50:47;;;;;;;993.33;896.30;;;19.50;99.90;;;;;;5004187;28;20284;-61
2022/06/28 01:53:13;;;;;;;982.97;885.13;;;19.50;99.90;;;;;;5007629;28;20191;-61
2022/06/28 01:55:40;;;;;;;985.23;888.17;;;19.50;99.90;;;;;;5004912;28;20227;-60
2022/06/28 01:58:06;;;;;;;979.13;882.80;;;19.50;99.90;;;;;;5006136;28;20195;-60
2022/06/28 02:00:31;;;;;;;1021.20;924.13;;;19.50;99.90;;;;;;5005746;28;20229;-61
2022/06/28 02:02:57;;;;;;;1032.67;934.40;;;19.60;99.90;;;;;;5006961;28;20207;-60
2022/06/28 02:05:23;;;;;;;983.57;887.23;;;19.60;99.90;;;;;;5015697;28;20221;-60
2022/06/28 02:07:50;;;;;;;1037.13;941.10;;;19.70;99.90;;;;;;5024618;28;20195;-61
2022/06/28 02:10:19;;;;;;;1028.53;930.37;;;19.70;99.90;;;;;;5012179;28;20311;-60
2022/06/28 02:12:45;;;;;;;1008.70;911.20;;;19.80;99.90;;;;;;5025158;28;20206;-60
2022/06/28 02:15:11;;;;;;;1019.67;921.63;;;19.90;99.90;;;;;;5021755;28;20199;-61
2022/06/28 02:17:37;;;;;;;1047.53;949.17;;;20.00;99.90;;;;;;5022827;28;20703;-61
2022/06/28 02:20:03;;;;;;;1059.80;960.63;;;20.00;99.90;;;;;;5022436;28;20207;-60
2022/06/28 02:22:29;;;;;;;1007.67;910.03;;;20.00;99.90;;;;;;5024992;28;20210;-59
2022/06/28 02:24:54;;;;;;;1018.33;920.77;;;20.10;99.90;;;;;;5015062;28;20211;-59
2022/06/28 02:27:20;;;;;;;1033.63;935.70;;;20.00;99.90;;;;;;5024261;28;20198;-60
2022/06/28 02:29:45;;;;;;;994.10;897.23;;;20.00;99.90;;;;;;5015912;28;20212;-60
2022/06/28 02:32:11;;;;;;;1005.83;908.23;;;20.00;99.90;;;;;;5006737;28;20187;-60
2022/06/28 02:40:21;;;;;;;993.97;898.00;;;19.90;99.90;;;;;;5009425;28;20625;-60
2022/06/28 02:42:52;;;;;;;978.20;884.03;;;19.90;99.90;;;;;;5005453;28;20303;-60
2022/06/28 02:45:19;;;;;;;976.23;882.20;;;19.90;99.90;;;;;;5006284;28;20494;-61
2022/06/28 02:47:44;;;;;;;1010.23;913.33;;;20.00;99.90;;;;;;5018625;28;20231;-60
2022/06/28 02:50:10;;;;;;;993.83;898.70;;;19.80;99.90;;;;;;5013203;28;20275;-60
2022/06/28 02:52:36;;;;;;;967.13;873.40;;;19.80;99.90;;;;;;5024412;28;20188;-60
2022/06/28 02:55:02;;;;;;;1009.37;914.77;;;19.80;99.90;;;;;;5015218;28;20243;-60
2022/06/28 02:57:28;;;;;;;947.37;854.33;;;19.90;99.90;;;;;;5023751;28;20222;-61
2022/06/28 02:59:53;;;;;;;979.37;883.53;;;19.70;99.90;;;;;;5015962;28;20241;-61
2022/06/28 03:02:18;;;;;;;981.67;886.73;;;19.60;99.90;;;;;;5009518;28;20655;-60
2022/06/28 03:04:44;;;;;;;968.10;873.77;;;19.70;99.90;;;;;;5016855;28;20285;-59
2022/06/28 03:07:09;;;;;;;1020.77;924.17;;;19.70;99.90;;;;;;5019317;28;20214;-60
2022/06/28 03:09:35;;;;;;;1001.93;906.03;;;19.70;99.90;;;;;;5020796;28;20361;-59
2022/06/28 03:12:00;;;;;;;942.77;849.83;;;19.60;99.90;;;;;;5015692;28;20274;-59
2022/06/28 03:14:26;;;;;;;1018.30;920.73;;;19.50;99.90;;;;;;5021880;28;20205;-59
2022/06/28 03:16:51;;;;;;;981.50;887.07;;;19.40;99.90;;;;;;5019956;28;20184;-59
2022/06/28 03:19:17;;;;;;;990.30;894.07;;;19.50;99.90;;;;;;5022577;28;20197;-59
2022/06/28 03:21:43;;;;;;;989.07;893.87;;;19.30;99.90;;;;;;5014336;28;20956;-59
2022/06/28 03:24:09;;;;;;;983.10;888.60;;;19.30;99.90;;;;;;5020976;28;20208;-59
2022/06/28 03:26:34;;;;;;;993.53;920.37;;;19.30;99.90;;;;;;5012439;28;20202;-59
2022/06/28 03:29:00;;;;;;;1016.07;928.60;;;19.40;99.90;;;;;;5018750;28;20731;-59
2022/06/28 03:31:25;;;;;;;972.03;881.63;;;19.40;99.90;;;;;;5013679;28;20214;-59
2022/06/28 03:33:51;;;;;;;1019.40;927.40;;;19.50;99.90;;;;;;5023741;28;20227;-59
2022/06/28 03:36:16;;;;;;;1005.70;909.90;;;19.60;99.90;;;;;;5006118;28;20232;-59
2022/06/28 03:38:42;;;;;;;1020.73;926.57;;;19.60;99.90;;;;;;5023949;28;20191;-60
2022/06/28 03:41:07;;;;;;;1006.60;913.07;;;19.70;99.90;;;;;;5016672;28;20563;-60
2022/06/28 03:43:33;;;;;;;941.10;869.43;;;19.60;99.90;;;;;;5028037;28;20207;-60
2022/06/28 03:45:58;;;;;;;972.67;892.10;;;19.70;99.90;;;;;;5012313;28;20630;-59
2022/06/28 03:48:24;;;;;;;1017.47;939.53;;;19.70;99.90;;;;;;5027760;28;20573;-59
2022/06/28 03:50:49;;;;;;;987.23;900.77;;;19.80;99.90;;;;;;5013276;28;20334;-59
2022/06/28 03:53:15;;;;;;;1028.33;936.97;;;19.60;99.90;;;;;;5027283;28;20959;-59
2022/06/28 03:55:40;;;;;;;980.23;893.77;;;19.50;99.90;;;;;;5015033;28;20289;-59
2022/06/28 03:58:06;;;;;;;977.03;896.80;;;19.60;99.90;;;;;;5025480;28;20298;-58
2022/06/28 04:00:31;;;;;;;982.67;897.20;;;19.70;99.90;;;;;;5016243;28;20215;-59
2022/06/28 04:02:59;;;;;;;990.40;908.40;;;19.40;99.90;;;;;;5027592;28;20256;-59
2022/06/28 04:05:25;;;;;;;977.50;885.20;;;19.40;99.90;;;;;;5021351;28;20647;-59
2022/06/28 04:07:50;;;;;;;934.43;870.50;;;19.30;99.90;;;;;;5027008;28;20731;-59
2022/06/28 04:10:16;;;;;;;975.70;886.33;;;19.40;99.90;;;;;;5017848;28;20320;-59
2022/06/28 04:12:41;;;;;;;908.27;839.77;;;19.50;99.90;;;;;;5019323;28;20184;-59
2022/06/28 04:15:07;;;;;;;879.53;823.30;;;19.50;99.90;;;;;;5019309;28;20697;-60
2022/06/28 04:17:33;;;;;;;916.77;856.53;;;19.40;99.90;;;;;;5024824;28;20195;-58
2022/06/28 04:19:58;;;;;;;1001.03;923.37;;;19.30;99.90;;;;;;5020798;28;20873;-59
2022/06/28 04:22:24;;;;;;;967.43;897.23;;;19.20;99.90;;;;;;5015437;28;20190;-59
2022/06/28 04:24:49;;;;;;;956.50;882.67;;;19.20;99.90;;;;;;5009428;28;20298;-59
2022/06/28 04:27:15;;;;;;;952.70;862.57;;;18.90;99.90;;;;;;5011340;28;20282;-59
2022/06/28 04:29:41;;;;;;;931.00;858.73;;;18.80;99.90;;;;;;5023222;28;20314;-59
2022/06/28 04:32:07;;;;;;;905.03;849.27;;;18.60;99.90;;;;;;5013392;28;20190;-59
2022/06/28 04:34:33;;;;;;;837.13;780.87;;;18.40;99.90;;;;;;5025364;28;20253;-59
2022/06/28 04:36:58;;;;;;;823.23;772.63;;;18.30;99.90;;;;;;5018710;28;20184;-59
2022/06/28 04:39:24;;;;;;;874.40;820.47;;;18.30;99.90;;;;;;5020997;28;20558;-59
2022/06/28 04:41:50;;;;;;;930.43;849.30;;;18.40;99.90;;;;;;5015220;28;20245;-59
2022/06/28 04:44:15;;;;;;;893.03;805.50;;;18.40;99.90;;;;;;5026901;28;20297;-59
2022/06/28 04:46:41;;;;;;;930.70;839.77;;;18.50;99.90;;;;;;5015154;28;20210;-59
2022/06/28 04:49:06;;;;;;;870.70;792.27;;;18.30;99.90;;;;;;5026771;28;20746;-59
2022/06/28 04:51:32;;;;;;;936.90;846.03;;;18.30;99.90;;;;;;5012785;28;20212;-60
2022/06/28 04:53:57;;;;;;;951.20;877.27;;;18.30;99.90;;;;;;5026090;28;20252;-60
2022/06/28 04:56:24;;;;;;;896.73;815.27;;;18.30;99.90;;;;;;5013206;28;20227;-60
2022/06/28 04:58:50;;;;;;;916.60;824.77;;;18.30;99.90;;;;;;5026693;28;20207;-60
2022/06/28 05:01:16;;;;;;;913.00;821.53;;;18.30;99.90;;;;;;5010624;28;20620;-60
2022/06/28 05:03:42;;;;;;;876.57;785.47;;;18.30;99.90;;;;;;5023450;28;20309;-61
2022/06/28 05:06:08;;;;;;;879.97;789.87;;;18.50;99.90;;;;;;5011034;28;20204;-60
2022/06/28 05:08:34;;;;;;;862.30;772.83;;;18.50;99.90;;;;;;5020623;28;20307;-60
2022/06/28 05:11:00;;;;;;;867.10;777.50;;;18.50;99.90;;;;;;5012975;28;20242;-60
2022/06/28 05:13:25;;;;;;;886.80;801.07;;;18.50;99.90;;;;;;5026324;28;20603;-60
2022/06/28 05:15:51;;;;;;;906.73;828.03;;;18.60;99.90;;;;;;5024554;28;20265;-60
2022/06/28 05:18:16;;;;;;;896.43;807.17;;;18.50;99.90;;;;;;5023379;28;20291;-59
2022/06/28 05:20:42;;;;;;;877.97;789.40;;;18.50;99.90;;;;;;5014274;28;20207;-59
2022/06/28 05:23:07;;;;;;;894.10;806.80;;;18.40;99.90;;;;;;5025451;28;20205;-59
2022/06/28 05:25:33;;;;;;;971.43;892.33;;;18.50;99.90;;;;;;5016872;28;20305;-61
2022/06/28 05:27:58;;;;;;;926.87;849.07;;;18.30;99.90;;;;;;5023570;28;20198;-60
2022/06/28 05:30:24;;;;;;;908.47;818.13;;;18.20;99.90;;;;;;5023401;28;20697;-60
2022/06/28 05:32:49;;;;;;;861.87;771.27;;;18.10;99.90;;;;;;5010636;28;20183;-60
2022/06/28 05:35:14;;;;;;;914.47;831.87;;;18.10;99.90;;;;;;5024285;28;20197;-61
2022/06/28 05:37:40;;;;;;;918.03;843.27;;;18.10;99.90;;;;;;5015696;28;20186;-60
2022/06/28 05:40:06;;;;;;;848.20;759.33;;;18.10;99.90;;;;;;5019744;28;20200;-61
2022/06/28 05:42:32;;;;;;;814.93;726.90;;;18.20;99.90;;;;;;5019286;28;20186;-60
2022/06/28 05:44:57;;;;;;;900.93;807.60;;;18.20;99.90;;;;;;5021425;28;20252;-60
2022/06/28 05:47:23;;;;;;;837.10;750.53;;;18.10;99.90;;;;;;5025803;28;20168;-60
2022/06/28 05:49:48;;;;;;;848.60;757.43;;;18.10;99.90;;;;;;5023019;28;20219;-60
2022/06/28 05:52:14;;;;;;;848.70;759.07;;;18.10;99.90;;;;;;5013229;28;20194;-60
2022/06/28 05:54:39;;;;;;;882.83;791.10;;;18.10;99.90;;;;;;5020514;28;20217;-60
2022/06/28 05:57:05;;;;;;;937.00;843.17;;;18.10;99.90;;;;;;5015102;28;20218;-60
2022/06/28 05:59:32;;;;;;;878.97;787.13;;;18.20;99.90;;;;;;5024769;28;20203;-60
2022/06/28 06:01:57;;;;;;;897.03;804.60;;;18.20;99.90;;;;;;5009267;28;20217;-60
2022/06/28 06:04:25;;;;;;;891.30;799.27;;;18.30;99.90;;;;;;5025301;28;20566;-61
2022/06/28 06:06:51;;;;;;;910.07;818.97;;;18.50;99.90;;;;;;5015138;28;20693;-60
2022/06/28 06:09:17;;;;;;;844.70;756.63;;;18.50;99.90;;;;;;5025182;28;20223;-60
2022/06/28 06:11:44;;;;;;;833.90;745.73;;;18.30;99.90;;;;;;5014588;28;20673;-61
2022/06/28 06:14:10;;;;;;;847.87;759.30;;;18.50;99.90;;;;;;5024708;28;20186;-61
2022/06/28 06:16:36;;;;;;;854.40;764.90;;;18.60;99.90;;;;;;5017153;28;20202;-60
2022/06/28 06:19:01;;;;;;;844.20;755.27;;;18.60;99.90;;;;;;5025526;28;20237;-60
2022/06/28 06:21:27;;;;;;;893.63;820.07;;;18.60;99.90;;;;;;5009911;28;20201;-60
2022/06/28 06:23:53;;;;;;;904.70;820.50;;;18.70;99.90;;;;;;5023854;28;20201;-61
2022/06/28 06:26:18;;;;;;;952.23;860.10;;;18.80;99.90;;;;;;5013817;28;20198;-60
2022/06/28 06:28:44;;;;;;;871.20;781.80;;;18.90;99.90;;;;;;5024992;28;20226;-60
2022/06/28 06:31:09;;;;;;;933.07;840.93;;;19.10;99.90;;;;;;5012081;28;20214;-60
2022/06/28 06:33:35;;;;;;;935.50;844.33;;;19.20;99.90;;;;;;5024681;28;20681;-60
2022/06/28 06:36:02;;;;;;;928.37;855.57;;;19.20;99.90;;;;;;5020258;28;20545;-60
2022/06/28 06:38:28;;;;;;;939.70;861.80;;;19.30;99.90;;;;;;5024339;28;20671;-60
2022/06/28 06:40:55;;;;;;;912.07;840.90;;;19.10;99.90;;;;;;5023162;28;20206;-60
2022/06/28 06:43:21;;;;;;;882.33;792.17;;;19.20;99.90;;;;;;5021059;28;20232;-60
2022/06/28 06:45:47;;;;;;;902.17;817.17;;;19.30;99.90;;;;;;5014773;28;20238;-60
2022/06/28 06:48:12;;;;;;;972.53;887.50;;;19.40;99.90;;;;;;5021182;28;20213;-60
2022/06/28 06:50:38;;;;;;;937.67;854.13;;;19.60;99.90;;;;;;5016030;28;20219;-60
2022/06/28 06:53:03;;;;;;;928.93;841.57;;;19.80;99.90;;;;;;5021332;28;20191;-60
2022/06/28 06:55:29;;;;;;;971.33;899.13;;;20.00;99.90;;;;;;5016415;28;20827;-59
2022/06/28 06:57:55;;;;;;;968.10;900.83;;;19.90;99.90;;;;;;5024303;28;20201;-59
2022/06/28 07:00:20;;;;;;;723.37;677.17;;;19.90;99.90;;;;;;5019485;28;20275;-58
2022/06/28 07:02:46;;;;;;;700.00;655.80;;;19.80;99.90;;;;;;5012498;28;20190;-59
2022/06/28 07:05:11;;;;;;;740.07;690.03;;;19.80;99.90;;;;;;5020643;28;20681;-59
2022/06/28 07:07:39;;;;;;;762.00;714.53;;;19.80;99.90;;;;;;5012415;28;20199;-60
2022/06/28 07:10:04;;;;;;;986.47;906.50;;;19.80;99.90;;;;;;5021488;28;20298;-60
2022/06/28 07:12:30;;;;;;;850.80;795.97;;;19.90;99.90;;;;;;5016436;28;20357;-59
2022/06/28 07:14:56;;;;;;;535.17;503.87;;;19.90;99.90;;;;;;5024026;28;20284;-60
2022/06/28 07:17:21;;;;;;;580.23;544.53;;;20.00;99.90;;;;;;5014106;28;20211;-60
2022/06/28 07:19:46;;;;;;;856.77;802.27;;;20.20;99.90;;;;;;5028308;28;20725;-60
2022/06/28 07:22:12;;;;;;;973.87;909.67;;;20.10;99.90;;;;;;5012240;28;20211;-61
2022/06/28 07:24:37;;;;;;;743.83;697.20;;;20.30;99.90;;;;;;5028217;28;20188;-61
2022/06/28 07:27:03;;;;;;;920.53;858.43;;;20.30;99.90;;;;;;5015382;28;20218;-61
2022/06/28 07:29:29;;;;;;;939.90;851.97;;;20.40;99.90;;;;;;5028114;28;20221;-60
2022/06/28 07:31:54;;;;;;;965.40;896.27;;;20.40;99.90;;;;;;5011448;28;20207;-59
2022/06/28 07:34:20;;;;;;;825.33;767.70;;;20.60;99.90;;;;;;5027701;28;20234;-60
2022/06/28 07:36:45;;;;;;;613.10;574.87;;;20.60;99.90;;;;;;5019148;28;20734;-61
2022/06/28 07:39:11;;;;;;;747.10;699.80;;;20.70;99.90;;;;;;5028057;28;20200;-60
2022/06/28 07:41:36;;;;;;;865.73;812.33;;;20.90;99.90;;;;;;5015306;28;20203;-61
2022/06/28 07:44:02;;;;;;;936.37;879.17;;;21.00;99.90;;;;;;5028676;28;20681;-61
2022/06/28 07:46:28;;;;;;;989.47;921.07;;;21.20;99.90;;;;;;5015018;28;20202;-61
2022/06/28 07:48:53;;;;;;;910.43;850.30;;;21.30;99.90;;;;;;5027104;28;20211;-60
2022/06/28 07:54:04;;;;;;;976.63;905.30;;;21.80;99.90;;;;;;5016635;28;20199;-60
2022/06/28 07:56:29;;;;;;;859.67;804.80;;;22.00;99.90;;;;;;5014359;28;20228;-61
2022/06/28 07:58:55;;;;;;;946.93;886.63;;;21.80;99.90;;;;;;5009693;28;20250;-61
2022/06/28 08:01:22;;;;;;;996.27;928.83;;;21.60;99.90;;;;;;5006471;28;20295;-62
2022/06/28 08:03:47;;;;;;;1059.00;966.23;;;21.80;99.90;;;;;;5007398;28;20798;-62
2022/06/28 08:06:13;;;;;;;1028.33;944.10;;;22.10;99.90;;;;;;5025139;28;20282;-61
2022/06/28 08:08:39;;;;;;;1031.43;944.67;;;22.20;99.90;;;;;;5026845;28;20560;-62
2022/06/28 08:11:04;;;;;;;1040.23;961.40;;;22.10;99.90;;;;;;5018142;28;20266;-72
2022/06/28 08:13:30;;;;;;;1044.27;965.30;;;22.30;99.90;;;;;;5022620;28;20187;-73
2022/06/28 08:15:56;;;;;;;1027.97;960.33;;;22.40;99.90;;;;;;5011271;28;20192;-60
2022/06/28 08:18:21;;;;;;;1078.17;998.73;;;22.50;99.90;;;;;;5009873;28;20238;-61
2022/06/28 08:20:47;;;;;;;918.17;861.07;;;22.30;99.90;;;;;;5007734;28;20674;-60
2022/06/28 08:23:13;;;;;;;932.23;874.17;;;22.30;99.90;;;;;;5007427;28;20182;-61
2022/06/28 08:25:41;;;;;;;913.87;857.10;;;22.40;99.90;;;;;;5009903;28;20278;-60
2022/06/28 08:28:07;;;;;;;941.27;882.83;;;22.50;99.90;;;;;;5007105;28;20476;-61
2022/06/28 08:30:33;;;;;;;969.00;907.47;;;22.60;99.90;;;;;;5007642;28;21116;-59
2022/06/28 08:32:58;;;;;;;921.30;864.37;;;22.20;99.90;;;;;;5008524;28;20267;-60
2022/06/28 08:35:24;;;;;;;933.93;873.17;;;21.90;99.90;;;;;;5009253;28;20662;-60
2022/06/28 08:37:49;;;;;;;913.70;857.13;;;21.90;99.90;;;;;;5007018;28;20223;-60
2022/06/28 08:40:15;;;;;;;909.23;852.73;;;22.00;99.90;;;;;;5008085;28;20188;-61
2022/06/28 08:42:47;;;;;;;926.87;869.10;;;22.40;99.90;;;;;;5006301;28;20326;-62
2022/06/28 08:45:14;;;;;;;944.97;886.37;;;22.50;99.90;;;;;;5017559;28;20294;-63
2022/06/28 08:47:42;;;;;;;964.37;904.50;;;22.40;99.90;;;;;;5016067;28;20215;-63
2022/06/28 08:50:14;;;;;;;966.07;906.37;;;22.10;99.90;;;;;;5024915;28;20305;-61
2022/06/28 08:52:41;;;;;;;998.03;936.00;;;22.30;99.90;;;;;;5009695;28;20644;-63
2022/06/28 08:55:09;;;;;;;1090.47;999.90;;;22.80;99.90;;;;;;5022859;28;20570;-63
2022/06/28 08:57:35;;;;;;;1063.73;993.67;;;23.30;99.90;;;;;;5005311;28;20203;-64
2022/06/28 09:00:05;;;;;;;1099.50;999.90;;;23.60;99.90;;;;;;5009179;28;20211;-62
2022/06/28 09:02:31;;;;;;;1073.70;997.00;;;23.60;99.90;;;;;;5007684;28;20207;-63
2022/06/28 09:04:59;;;;;;;1074.47;997.93;;;23.40;99.90;;;;;;5010249;28;20518;-62
2022/06/28 09:07:25;;;;;;;1082.60;999.87;;;23.40;99.90;;;;;;5006833;28;20231;-63
2022/06/28 09:09:51;;;;;;;1088.37;999.90;;;23.30;99.90;;;;;;5009426;28;20582;-62
2022/06/28 09:12:17;;;;;;;1100.53;999.90;;;22.80;99.80;;;;;;5008395;28;20204;-63
2022/06/28 09:14:42;;;;;;;1092.13;999.90;;;23.10;99.90;;;;;;5011861;28;20203;-63
2022/06/28 09:17:29;;;;;;;1088.57;999.90;;;23.30;99.30;;;;;;5015835;28;20196;-62
2022/06/28 09:20:13;;;;;;;1121.80;999.90;;;23.80;98.40;;;;;;4988066;28;20690;-62
2022/06/28 09:22:41;;;;;;;1111.60;999.90;;;23.60;98.80;;;;;;5005246;28;20200;-62
2022/06/28 09:25:10;;;;;;;1114.63;999.90;;;23.80;99.00;;;;;;5008992;28;20196;-63
2022/06/28 09:27:38;;;;;;;1131.73;999.90;;;24.10;97.90;;;;;;5007066;28;20200;-63
2022/06/28 09:30:07;;;;;;;1129.27;999.90;;;24.20;98.40;;;;;;5008081;28;20800;-63
2022/06/28 09:32:35;;;;;;;1135.73;999.90;;;24.50;98.10;;;;;;5012182;28;20223;-65
2022/06/28 09:35:11;;;;;;;1113.57;999.90;;;24.20;97.50;;;;;;5025901;28;20193;-62
2022/06/28 09:37:45;;;;;;;1119.70;999.90;;;24.00;97.60;;;;;;5008479;28;20261;-61
2022/06/28 09:40:12;;;;;;;1114.90;999.90;;;23.80;97.60;;;;;;5007267;28;20198;-63
2022/06/28 09:42:38;;;;;;;1129.73;999.90;;;23.80;98.00;;;;;;5012544;28;20701;-63
2022/06/28 09:45:05;;;;;;;1107.70;999.90;;;24.00;98.10;;;;;;5025988;28;20196;-63
2022/06/28 09:47:30;;;;;;;1112.57;999.90;;;24.40;97.30;;;;;;5012425;28;20684;-63
2022/06/28 09:49:56;;;;;;;1110.63;999.90;;;24.50;96.20;;;;;;5025682;28;20314;-63
2022/06/28 09:52:26;;;;;;;1134.10;999.90;;;24.90;95.90;;;;;;5009237;28;20196;-63
2022/06/28 09:54:55;;;;;;;1134.27;999.90;;;25.00;95.50;;;;;;5021032;28;20218;-64
2022/06/28 09:57:21;;;;;;;1136.20;999.90;;;25.30;94.60;;;;;;5008024;28;20203;-63
2022/06/28 09:59:49;;;;;;;1123.60;999.90;;;24.40;94.10;;;;;;5025786;28;20229;-62
2022/06/28 10:02:16;;;;;;;1116.00;999.90;;;24.20;94.30;;;;;;5004891;28;20207;-62
2022/06/28 10:04:43;;;;;;;1127.50;999.90;;;23.80;95.00;;;;;;5010351;28;20207;-61
2022/06/28 10:07:10;;;;;;;1115.03;999.90;;;23.80;95.70;;;;;;5005507;28;20210;-62
2022/06/28 10:09:37;;;;;;;1071.20;999.70;;;24.00;95.30;;;;;;5007560;28;20646;-62
2022/06/28 10:15:01;;;;;;;1022.73;958.37;;;23.40;95.30;;;;;;5009623;28;20210;-65
2022/06/28 10:17:44;;;;;;;1044.53;979.20;;;24.00;95.80;;;;;;5015600;28;20234;-64
2022/06/28 10:20:12;;;;;;;1013.27;950.00;;;24.70;94.70;;;;;;5013955;28;20199;-70
2022/06/28 10:22:38;;;;;;;1016.83;952.83;;;25.00;92.90;;;;;;5005556;28;20208;-70
2022/06/28 10:25:20;;;;;;;1004.97;941.50;;;24.60;92.60;;;;;;5024927;28;20566;-71
2022/06/28 10:27:51;;;;;;;1008.63;945.13;;;24.40;92.50;;;;;;5004584;28;20387;-71
2022/06/28 10:30:20;;;;;;;992.50;930.03;;;24.10;92.80;;;;;;5021817;28;20219;-71
2022/06/28 10:33:03;;;;;;;1006.43;942.80;;;23.80;92.70;;;;;;5008996;28;20200;-71
2022/06/28 10:35:29;;;;;;;998.30;935.60;;;23.90;93.90;;;;;;5012770;28;20276;-71
2022/06/28 10:38:09;;;;;;;1018.97;955.17;;;24.00;93.50;;;;;;5013434;28;20281;-71
2022/06/28 10:40:38;;;;;;;995.00;931.80;;;24.10;93.10;;;;;;5011105;28;20226;-70
2022/06/28 10:43:03;;;;;;;1002.30;939.37;;;24.20;92.70;;;;;;5007654;28;20271;-70
2022/06/28 10:46:04;;;;;;;994.97;932.00;;;24.30;93.20;;;;;;5006456;28;21040;-70
2022/06/28 10:48:31;;;;;;;1009.00;945.37;;;24.50;92.10;;;;;;5003218;28;20215;-70
2022/06/28 10:51:01;;;;;;;1081.13;999.90;;;24.40;92.60;;;;;;5013825;28;20203;-71
2022/06/28 10:53:28;;;;;;;1134.30;999.90;;;25.00;93.00;;;;;;5017065;28;20275;-71
2022/06/28 10:56:12;;;;;;;1121.00;999.90;;;25.60;93.20;;;;;;5015839;28;20233;-70
2022/06/28 10:58:58;;;;;;;1111.33;999.90;;;26.10;91.20;;;;;;5013583;28;20177;-70
2022/06/28 11:01:44;;;;;;;988.20;924.80;;;26.40;90.20;;;;;;5007007;28;20655;-70
2022/06/28 11:04:18;;;;;;;948.15;886.03;;;26.70;87.80;;;;;;5012986;28;20197;-70
2022/06/28 11:06:46;;;;;;;942.03;880.45;;;27.70;84.10;;;;;;5026932;28;20225;-70
2022/06/28 11:09:44;;;;;;;1045.55;977.97;;;29.00;77.10;;;;;;5023515;28;20202;-69
2022/06/28 11:12:12;;;;;;;1116.22;999.90;;;30.20;71.40;;;;;;4994796;28;20254;-71
2022/06/28 11:14:57;;;;;;;1185.75;999.90;;;31.20;70.50;;;;;;5022378;28;20295;-75
2022/06/28 11:17:25;;;;;;;1173.80;999.90;;;32.20;65.80;;;;;;5011889;28;20195;-63
2022/06/28 11:19:53;;;;;;;1223.90;999.90;;;31.10;61.30;;;;;;5017971;28;20202;-76
2022/06/28 11:22:32;;;;;;;1205.88;999.90;;;29.70;63.20;;;;;;5014470;28;20204;-78
2022/06/28 11:25:03;;;;;;;1214.50;999.90;;;28.60;66.10;;;;;;5014600;28;20201;-75
2022/06/28 11:27:29;;;;;;;1204.17;999.90;;;28.60;65.30;;;;;;5006378;28;20562;-76
2022/06/28 11:30:05;;;;;;;1194.70;999.90;;;29.30;62.10;;;;;;5028583;28;20360;-77
2022/06/28 11:32:39;;;;;;;1186.30;999.90;;;29.10;62.20;;;;;;5009532;28;20214;-77
2022/06/28 11:35:10;;;;;;;1205.53;999.90;;;28.40;62.50;;;;;;5025228;28;20263;-78
2022/06/28 11:37:47;;;;;;;1201.13;999.90;;;28.10;66.50;;;;;;5013982;28;20206;-78
2022/06/28 11:40:13;;;;;;;1182.07;999.90;;;27.50;66.40;;;;;;5002550;28;20219;-78
2022/06/28 11:42:38;;;;;;;1206.57;999.90;;;27.10;66.70;;;;;;5014120;28;20255;-78
2022/06/28 11:45:05;;;;;;;1215.47;999.90;;;28.50;68.80;;;;;;5028312;28;20594;-78
2022/06/28 11:47:30;;;;;;;1195.90;999.90;;;30.10;61.60;;;;;;5013589;28;20223;-78
2022/06/28 11:50:17;;;;;;;1204.43;999.90;;;30.00;61.50;;;;;;5027542;28;20215;-78
2022/06/28 11:52:47;;;;;;;1220.00;999.90;;;32.00;59.20;;;;;;5015943;28;20225;-78
2022/06/28 11:55:14;;;;;;;1211.43;999.90;;;33.70;56.00;;;;;;5028319;28;20256;-77
2022/06/28 11:57:39;;;;;;;1216.00;999.90;;;33.60;53.50;;;;;;5024675;28;20669;-77
2022/06/28 12:00:07;;;;;;;1207.10;999.90;;;32.90;52.30;;;;;;5027868;28;20265;-79
2022/06/28 12:03:03;;;;;;;1202.03;999.90;;;32.00;53.60;;;;;;5019687;28;20798;-78
2022/06/28 12:05:32;;;;;;;1206.70;999.90;;;30.60;55.00;;;;;;5012682;28;20188;-78
2022/06/28 12:07:58;;;;;;;1183.67;999.90;;;29.40;56.00;;;;;;5009829;28;20297;-79
2022/06/28 12:10:32;;;;;;;1180.53;999.90;;;29.80;57.60;;;;;;5027205;28;20203;-77
2022/06/28 12:13:08;;;;;;;1198.07;999.90;;;31.80;54.30;;;;;;5009739;28;20287;-78
2022/06/28 12:15:34;;;;;;;1168.63;999.90;;;33.00;52.70;;;;;;5007992;28;20198;-78
2022/06/28 12:18:02;;;;;;;1200.73;999.90;;;32.30;52.40;;;;;;5010383;28;20196;-78